sensor_id;sensor_type;location;lat;lon;timestamp;P1;durP1;ratioP1;P2;durP2;ratioP2
61108;SDS011;46995;55.740;37.402;2022-07-23T17:17:54;9.20;;;7.28;;
61108;SDS011;46995;55.740;37.402;2022-07-23T17:20:21;8.77;;;6.40;;
61108;SDS011;46995;55.740;37.402;2022-07-23T17:22:47;10.13;;;7.27;;
61108;SDS011;46995;55.740;37.402;2022-07-23T17:25:12;11.40;;;7.87;;
61108;SDS011;46995;55.740;37.402;2022-07-23T17:27:43;8.90;;;7.30;;
61108;SDS011;46995;55.740;37.402;2022-07-23T17:30:10;12.63;;;9.90;;
61108;SDS011;46995;55.740;37.402;2022-07-23T17:32:37;9.45;;;7.13;;
61108;SDS011;46995;55.740;37.402;2022-07-23T17:35:03;9.30;;;7.38;;
61108;SDS011;46995;55.740;37.402;2022-07-23T17:37:30;14.57;;;7.43;;
61108;SDS011;46995;55.740;37.402;2022-07-23T17:39:56;13.43;;;6.83;;
61108;SDS011;46995;55.740;37.402;2022-07-23T17:42:22;10.30;;;6.57;;
61108;SDS011;46995;55.740;37.402;2022-07-23T17:44:48;11.80;;;6.80;;
61108;SDS011;46995;55.740;37.402;2022-07-23T17:47:14;11.57;;;7.33;;
61108;SDS011;46995;55.740;37.402;2022-07-23T17:49:40;14.48;;;9.13;;
61108;SDS011;46995;55.740;37.402;2022-07-23T17:52:06;14.57;;;9.07;;
61108;SDS011;46995;55.740;37.402;2022-07-23T17:54:33;11.00;;;7.50;;
61108;SDS011;46995;55.740;37.402;2022-07-23T17:56:59;11.85;;;8.20;;
61108;SDS011;46995;55.740;37.402;2022-07-23T17:59:25;11.68;;;7.93;;
61108;SDS011;46995;55.740;37.402;2022-07-23T18:01:51;13.20;;;7.63;;
61108;SDS011;46995;55.740;37.402;2022-07-23T18:04:18;12.27;;;7.97;;
61108;SDS011;46995;55.740;37.402;2022-07-23T18:06:44;10.05;;;7.78;;
61108;SDS011;46995;55.740;37.402;2022-07-23T18:09:10;17.23;;;8.00;;
61108;SDS011;46995;55.740;37.402;2022-07-23T18:11:38;15.80;;;7.45;;
61108;SDS011;46995;55.740;37.402;2022-07-23T18:14:06;13.70;;;8.10;;
61108;SDS011;46995;55.740;37.402;2022-07-23T18:16:34;9.30;;;7.15;;
61108;SDS011;46995;55.740;37.402;2022-07-23T18:21:26;14.10;;;8.15;;
61108;SDS011;46995;55.740;37.402;2022-07-23T18:23:52;15.30;;;8.50;;
61108;SDS011;46995;55.740;37.402;2022-07-23T18:26:18;13.23;;;7.73;;
61108;SDS011;46995;55.740;37.402;2022-07-23T18:28:45;12.05;;;8.10;;
61108;SDS011;46995;55.740;37.402;2022-07-23T18:31:11;15.70;;;9.07;;
61108;SDS011;46995;55.740;37.402;2022-07-23T18:33:37;18.95;;;8.13;;
61108;SDS011;46995;55.740;37.402;2022-07-23T18:36:03;13.35;;;7.13;;
61108;SDS011;46995;55.740;37.402;2022-07-23T18:38:30;10.18;;;7.90;;
61108;SDS011;46995;55.740;37.402;2022-07-23T18:40:56;14.98;;;7.70;;
61108;SDS011;46995;55.740;37.402;2022-07-23T18:43:22;14.40;;;7.82;;
61108;SDS011;46995;55.740;37.402;2022-07-23T18:45:48;19.00;;;8.43;;
61108;SDS011;46995;55.740;37.402;2022-07-23T18:48:15;18.58;;;8.20;;
61108;SDS011;46995;55.740;37.402;2022-07-23T18:50:41;11.27;;;7.83;;
61108;SDS011;46995;55.740;37.402;2022-07-23T18:53:08;13.35;;;8.07;;
61108;SDS011;46995;55.740;37.402;2022-07-23T18:55:33;15.53;;;7.63;;
61108;SDS011;46995;55.740;37.402;2022-07-23T18:57:59;14.20;;;7.83;;
61108;SDS011;46995;55.740;37.402;2022-07-23T19:00:28;18.83;;;8.93;;
61108;SDS011;46995;55.740;37.402;2022-07-23T19:02:56;14.73;;;8.68;;
61108;SDS011;46995;55.740;37.402;2022-07-23T19:05:22;16.33;;;8.32;;
61108;SDS011;46995;55.740;37.402;2022-07-23T19:07:48;15.15;;;8.57;;
61108;SDS011;46995;55.740;37.402;2022-07-23T19:10:14;14.87;;;8.57;;
61108;SDS011;46995;55.740;37.402;2022-07-23T19:12:40;12.53;;;8.53;;
61108;SDS011;46995;55.740;37.402;2022-07-23T19:15:06;12.33;;;8.23;;
61108;SDS011;46995;55.740;37.402;2022-07-23T19:17:32;15.55;;;8.65;;
61108;SDS011;46995;55.740;37.402;2022-07-23T19:19:58;12.27;;;8.77;;
61108;SDS011;46995;55.740;37.402;2022-07-23T19:22:24;14.57;;;9.13;;
61108;SDS011;46995;55.740;37.402;2022-07-23T19:24:52;13.00;;;7.82;;
61108;SDS011;46995;55.740;37.402;2022-07-23T19:27:19;14.63;;;8.98;;
61108;SDS011;46995;55.740;37.402;2022-07-23T19:29:45;14.90;;;8.07;;
61108;SDS011;46995;55.740;37.402;2022-07-23T19:32:11;18.67;;;9.27;;
61108;SDS011;46995;55.740;37.402;2022-07-23T19:34:36;12.00;;;8.90;;
61108;SDS011;46995;55.740;37.402;2022-07-23T19:37:03;13.53;;;9.17;;
61108;SDS011;46995;55.740;37.402;2022-07-23T19:39:43;14.70;;;8.45;;
61108;SDS011;46995;55.740;37.402;2022-07-23T19:42:10;11.48;;;9.18;;
61108;SDS011;46995;55.740;37.402;2022-07-23T19:47:03;12.55;;;8.43;;
61108;SDS011;46995;55.740;37.402;2022-07-23T19:49:29;17.55;;;8.45;;
61108;SDS011;46995;55.740;37.402;2022-07-23T19:51:57;12.80;;;8.27;;
61108;SDS011;46995;55.740;37.402;2022-07-23T19:54:24;11.32;;;8.30;;
61108;SDS011;46995;55.740;37.402;2022-07-23T19:59:16;13.23;;;8.87;;
61108;SDS011;46995;55.740;37.402;2022-07-23T20:01:42;17.77;;;9.27;;
61108;SDS011;46995;55.740;37.402;2022-07-23T20:04:08;13.27;;;9.57;;
61108;SDS011;46995;55.740;37.402;2022-07-23T20:06:34;12.37;;;8.83;;
61108;SDS011;46995;55.740;37.402;2022-07-23T20:09:00;13.90;;;8.77;;
61108;SDS011;46995;55.740;37.402;2022-07-23T20:11:26;13.03;;;8.57;;
61108;SDS011;46995;55.740;37.402;2022-07-23T20:13:52;16.35;;;9.02;;
61108;SDS011;46995;55.740;37.402;2022-07-23T20:16:18;19.90;;;10.30;;
61108;SDS011;46995;55.740;37.402;2022-07-23T20:18:44;13.47;;;8.17;;
61108;SDS011;46995;55.740;37.402;2022-07-23T20:21:10;12.27;;;8.67;;
61108;SDS011;46995;55.740;37.402;2022-07-23T20:23:35;13.93;;;9.07;;
61108;SDS011;46995;55.740;37.402;2022-07-23T20:26:01;14.03;;;9.60;;
61108;SDS011;46995;55.740;37.402;2022-07-23T20:28:28;14.45;;;9.60;;
61108;SDS011;46995;55.740;37.402;2022-07-23T20:30:54;17.90;;;10.10;;
61108;SDS011;46995;55.740;37.402;2022-07-23T20:33:21;15.83;;;9.10;;
61108;SDS011;46995;55.740;37.402;2022-07-23T20:35:48;10.35;;;8.63;;
61108;SDS011;46995;55.740;37.402;2022-07-23T20:38:14;13.00;;;8.65;;
61108;SDS011;46995;55.740;37.402;2022-07-23T20:40:40;13.00;;;8.67;;
61108;SDS011;46995;55.740;37.402;2022-07-23T20:43:07;14.90;;;9.65;;
61108;SDS011;46995;55.740;37.402;2022-07-23T20:45:34;16.15;;;9.55;;
61108;SDS011;46995;55.740;37.402;2022-07-23T20:48:01;16.35;;;9.75;;
61108;SDS011;46995;55.740;37.402;2022-07-23T20:50:27;17.87;;;9.10;;
61108;SDS011;46995;55.740;37.402;2022-07-23T20:52:53;10.85;;;9.07;;
61108;SDS011;46995;55.740;37.402;2022-07-23T20:55:19;16.03;;;9.50;;
61108;SDS011;46995;55.740;37.402;2022-07-23T20:57:48;16.25;;;9.05;;
61108;SDS011;46995;55.740;37.402;2022-07-23T21:00:14;11.67;;;8.43;;
61108;SDS011;46995;55.740;37.402;2022-07-23T21:02:41;17.35;;;8.93;;
61108;SDS011;46995;55.740;37.402;2022-07-23T21:05:07;18.77;;;8.43;;
61108;SDS011;46995;55.740;37.402;2022-07-23T21:07:35;11.70;;;8.90;;
61108;SDS011;46995;55.740;37.402;2022-07-23T21:12:26;16.27;;;8.43;;
61108;SDS011;46995;55.740;37.402;2022-07-23T21:14:52;11.90;;;8.57;;
61108;SDS011;46995;55.740;37.402;2022-07-23T21:17:18;14.53;;;9.13;;
61108;SDS011;46995;55.740;37.402;2022-07-23T21:19:44;14.25;;;9.82;;
61108;SDS011;46995;55.740;37.402;2022-07-23T21:22:10;12.40;;;9.57;;
61108;SDS011;46995;55.740;37.402;2022-07-23T21:24:37;13.02;;;9.75;;
61108;SDS011;46995;55.740;37.402;2022-07-23T21:27:03;17.73;;;10.03;;
61108;SDS011;46995;55.740;37.402;2022-07-23T21:29:29;17.97;;;9.97;;
61108;SDS011;46995;55.740;37.402;2022-07-23T21:31:55;16.37;;;9.00;;
61108;SDS011;46995;55.740;37.402;2022-07-23T21:34:21;13.83;;;9.43;;
61108;SDS011;46995;55.740;37.402;2022-07-23T21:36:48;12.93;;;9.13;;
61108;SDS011;46995;55.740;37.402;2022-07-23T21:39:14;15.30;;;9.35;;
61108;SDS011;46995;55.740;37.402;2022-07-23T21:41:40;13.67;;;9.80;;
61108;SDS011;46995;55.740;37.402;2022-07-23T21:44:08;14.57;;;9.60;;
61108;SDS011;46995;55.740;37.402;2022-07-23T21:46:34;11.90;;;8.55;;
61108;SDS011;46995;55.740;37.402;2022-07-23T21:49:00;13.43;;;8.35;;
61108;SDS011;46995;55.740;37.402;2022-07-23T21:51:27;11.65;;;8.15;;
61108;SDS011;46995;55.740;37.402;2022-07-23T21:53:53;11.13;;;8.38;;
61108;SDS011;46995;55.740;37.402;2022-07-23T21:56:20;11.95;;;9.30;;
61108;SDS011;46995;55.740;37.402;2022-07-23T21:58:46;11.52;;;8.02;;
61108;SDS011;46995;55.740;37.402;2022-07-23T22:01:11;12.70;;;8.25;;
61108;SDS011;46995;55.740;37.402;2022-07-23T22:03:37;15.10;;;8.73;;
61108;SDS011;46995;55.740;37.402;2022-07-23T22:06:03;14.32;;;8.80;;
61108;SDS011;46995;55.740;37.402;2022-07-23T22:08:29;18.17;;;9.13;;
61108;SDS011;46995;55.740;37.402;2022-07-23T22:10:55;15.63;;;8.90;;
61108;SDS011;46995;55.740;37.402;2022-07-23T22:13:21;12.60;;;8.55;;
61108;SDS011;46995;55.740;37.402;2022-07-23T22:15:47;17.02;;;8.45;;
61108;SDS011;46995;55.740;37.402;2022-07-23T22:18:13;13.13;;;8.57;;
61108;SDS011;46995;55.740;37.402;2022-07-23T22:20:38;14.95;;;9.15;;
61108;SDS011;46995;55.740;37.402;2022-07-23T22:23:05;12.20;;;9.00;;
61108;SDS011;46995;55.740;37.402;2022-07-23T22:25:31;14.30;;;9.45;;
61108;SDS011;46995;55.740;37.402;2022-07-23T22:27:57;11.07;;;8.60;;
61108;SDS011;46995;55.740;37.402;2022-07-23T22:30:23;13.40;;;8.87;;
61108;SDS011;46995;55.740;37.402;2022-07-23T22:32:49;11.27;;;8.73;;
61108;SDS011;46995;55.740;37.402;2022-07-23T22:35:15;10.33;;;8.23;;
61108;SDS011;46995;55.740;37.402;2022-07-23T22:37:42;12.77;;;8.30;;
61108;SDS011;46995;55.740;37.402;2022-07-23T22:40:08;13.55;;;8.55;;
61108;SDS011;46995;55.740;37.402;2022-07-23T22:42:36;12.38;;;8.60;;
61108;SDS011;46995;55.740;37.402;2022-07-23T22:45:01;14.05;;;8.27;;
61108;SDS011;46995;55.740;37.402;2022-07-23T22:47:28;10.32;;;8.27;;
61108;SDS011;46995;55.740;37.402;2022-07-23T22:49:54;10.52;;;8.25;;
61108;SDS011;46995;55.740;37.402;2022-07-23T22:52:19;11.30;;;7.72;;
61108;SDS011;46995;55.740;37.402;2022-07-23T22:54:45;9.40;;;7.82;;
61108;SDS011;46995;55.740;37.402;2022-07-23T22:57:11;10.95;;;8.52;;
61108;SDS011;46995;55.740;37.402;2022-07-23T22:59:37;11.05;;;8.48;;
61108;SDS011;46995;55.740;37.402;2022-07-23T23:02:03;11.65;;;9.10;;
61108;SDS011;46995;55.740;37.402;2022-07-23T23:04:28;14.27;;;9.20;;
61108;SDS011;46995;55.740;37.402;2022-07-23T23:06:54;12.95;;;8.70;;
61108;SDS011;46995;55.740;37.402;2022-07-23T23:09:20;14.15;;;9.02;;
61108;SDS011;46995;55.740;37.402;2022-07-23T23:11:46;13.55;;;8.82;;
61108;SDS011;46995;55.740;37.402;2022-07-23T23:14:12;11.07;;;8.40;;
61108;SDS011;46995;55.740;37.402;2022-07-23T23:16:37;12.48;;;9.18;;
61108;SDS011;46995;55.740;37.402;2022-07-23T23:19:03;11.63;;;9.07;;
61108;SDS011;46995;55.740;37.402;2022-07-23T23:21:29;17.15;;;9.27;;
61108;SDS011;46995;55.740;37.402;2022-07-23T23:23:54;14.80;;;8.80;;
61108;SDS011;46995;55.740;37.402;2022-07-23T23:26:20;15.95;;;9.30;;
61108;SDS011;46995;55.740;37.402;2022-07-23T23:28:46;12.13;;;9.00;;
61108;SDS011;46995;55.740;37.402;2022-07-23T23:31:12;17.63;;;9.52;;
61108;SDS011;46995;55.740;37.402;2022-07-23T23:33:37;14.50;;;9.20;;
61108;SDS011;46995;55.740;37.402;2022-07-23T23:36:03;13.20;;;10.13;;
61108;SDS011;46995;55.740;37.402;2022-07-23T23:38:29;10.27;;;8.80;;
61108;SDS011;46995;55.740;37.402;2022-07-23T23:40:55;14.38;;;9.55;;
61108;SDS011;46995;55.740;37.402;2022-07-23T23:43:21;13.80;;;9.37;;
61108;SDS011;46995;55.740;37.402;2022-07-23T23:45:48;14.23;;;8.80;;
61108;SDS011;46995;55.740;37.402;2022-07-23T23:48:13;13.90;;;9.68;;
61108;SDS011;46995;55.740;37.402;2022-07-23T23:50:39;12.30;;;9.82;;
61108;SDS011;46995;55.740;37.402;2022-07-23T23:53:05;13.52;;;9.43;;
61108;SDS011;46995;55.740;37.402;2022-07-23T23:55:32;13.85;;;9.98;;
61108;SDS011;46995;55.740;37.402;2022-07-23T23:57:58;11.25;;;8.73;;
